EST,Max TemperatureF,Mean TemperatureF,Min TemperatureF,Max Dew PointF,MeanDew PointF,Min DewpointF,Max Humidity, Mean Humidity, Min Humidity, Max Sea Level PressureIn, Mean Sea Level PressureIn, Min Sea Level PressureIn, Max VisibilityMiles, Mean VisibilityMiles, Min VisibilityMiles, Max Wind SpeedMPH, Mean Wind SpeedMPH, Max Gust SpeedMPH,PrecipitationIn, CloudCover, Events, WindDirDegrees
2013-11-1,51,44,37,50,42,31,96,86,76,29.68,29.22,28.88,10,9,3,23,8,32,0.15,8,Rain,323
2013-11-2,40,35,30,30,24,17,82,65,48,30.17,29.94,29.69,10,10,10,10,6,15,0.00,6,,30
2013-11-3,40,34,27,28,21,16,75,63,50,30.42,30.36,30.20,10,10,10,13,6,18,0.00,4,,100
2013-11-4,45,40,35,35,31,29,76,67,58,30.43,30.32,30.17,10,10,10,26,15,36,T,4,Rain,138
2013-11-5,56,49,41,42,37,32,76,60,43,30.22,30.17,30.02,10,10,3,15,7,20,0.14,5,Rain,180
2013-11-6,50,43,36,48,41,28,100,85,70,30.01,29.78,29.60,10,6,2,25,10,35,0.60,8,Rain,323
2013-11-7,38,35,32,33,31,27,96,80,64,30.03,29.96,29.90,10,4,0,21,11,28,0.48,8,Fog-Rain-Snow,286
2013-11-8,34,32,30,31,29,24,92,81,69,30.18,30.12,30.02,10,7,0,10,4,15,0.15,7,Fog-Rain-Snow,107
2013-11-9,41,37,33,38,34,30,96,91,85,30.05,29.72,29.57,10,6,0,18,10,28,0.49,8,Fog-Rain-Snow,167
2013-11-10,40,36,32,37,30,25,92,76,59,30.13,29.93,29.62,10,9,1,25,13,36,0.14,7,Rain-Snow,301
2013-11-11,39,29,19,32,20,10,92,75,58,30.37,30.05,29.88,10,5,0,26,15,40,0.18,7,Fog-Snow,315
2013-11-12,29,25,20,21,16,9,81,69,57,30.51,30.43,30.37,10,7,0,22,11,33,0.07,8,Fog-Snow,314
2013-11-13,42,32,21,31,21,12,70,63,55,30.37,30.09,29.78,10,10,10,25,12,35,0.00,3,,226
2013-11-14,45,41,37,36,33,29,92,77,62,29.82,29.80,29.76,10,8,4,23,9,31,0.19,6,Rain,240
2013-11-15,51,43,35,40,36,34,92,77,61,29.93,29.85,29.78,10,7,2,14,5,18,T,5,,177
2013-11-16,48,40,32,46,39,31,100,88,76,29.94,29.79,29.52,10,6,0,16,9,25,0.36,6,Fog-Rain,115
2013-11-17,56,52,48,54,52,46,100,95,89,29.52,29.26,28.91,10,4,0,14,8,23,2.54,8,Fog-Rain-Thunderstorm,138
2013-11-18,45,37,29,20,19,18,63,63,63,30.05,29.98,29.91,10,10,9,35,23,54,0.28,8,Snow,310
2013-11-19,29,27,24,22,18,16,81,72,63,30.38,30.30,30.08,10,10,10,21,7,29,T,5,,9
2013-11-20,39,33,27,32,28,24,89,77,64,30.38,30.32,30.23,10,10,10,17,10,24,0.00,2,,128
2013-11-21,39,38,36,37,34,30,92,84,76,30.23,30.17,30.14,10,6,0,12,4,16,T,8,Fog-Rain,141
2013-11-22,38,31,24,36,26,19,92,81,69,30.31,30.22,30.13,10,6,1,20,10,28,0.10,7,Rain-Snow,306
2013-11-23,27,18,8,23,10,-2,88,71,53,30.50,30.26,30.14,10,5,0,26,15,40,0.10,6,Fog-Snow,328
2013-11-24,21,13,4,17,5,-5,84,74,63,30.55,30.40,30.12,10,6,1,14,5,19,0.08,6,Snow,121
2013-11-25,33,27,21,27,24,15,92,78,63,30.06,29.81,29.73,10,6,0,20,12,27,0.10,8,Fog-Snow,230
2013-11-26,33,26,19,27,21,10,92,77,62,30.01,29.94,29.83,10,5,0,16,10,22,0.08,8,Fog-Snow,299
2013-11-27,22,17,11,16,7,4,76,62,47,30.20,30.07,29.95,10,9,2,20,10,29,T,3,Snow,360
2013-11-28,18,13,8,10,6,3,84,73,61,30.49,30.33,30.19,10,9,3,9,4,12,T,5,Snow,65
2013-11-29,27,18,8,21,12,4,88,78,68,30.64,30.57,30.48,10,10,8,9,6,13,0.00,4,,94
2013-11-30,32,30,27,30,27,18,92,78,63,30.44,30.10,30.00,10,4,0,16,6,23,0.11,8,Fog-Snow,146